Time;durP1;ratioP1;P1;durP2;ratioP2;P2;SDS_P1;SDS_P2;PMS_P1;PMS_P2;Temp;Humidity;BMP_temperature;BMP_pressure;BME280_temperature;BME280_humidity;BME280_pressure;Samples;Min_cycle;Max_cycle;Signal;HPM_P1;HPM_P2
2021/07/09 00:02:33;;;;;;;6.20;4.00;;;;;;;28.03;44.13;100631.89;1751693;81;21895;-67
2021/07/09 00:05:00;;;;;;;4.15;3.75;;;;;;;27.99;44.15;100630.78;1756512;81;21014;-67
2021/07/09 00:07:27;;;;;;;6.80;3.45;;;;;;;27.97;44.16;100629.38;1744480;81;21518;-67
2021/07/09 00:09:53;;;;;;;5.40;3.58;;;;;;;27.94;44.32;100625.82;1749975;81;20998;-67
2021/07/09 00:12:21;;;;;;;4.95;3.70;;;;;;;27.92;44.52;100630.17;1756608;81;21041;-65
2021/07/09 00:14:49;;;;;;;4.53;3.50;;;;;;;27.92;44.51;100628.81;1756695;81;22002;-67
2021/07/09 00:17:18;;;;;;;4.65;3.72;;;;;;;27.90;44.64;100629.61;1750020;81;21019;-67
2021/07/09 00:19:44;;;;;;;4.15;3.47;;;;;;;27.88;44.62;100633.15;1743282;82;21026;-67
2021/07/09 00:22:11;;;;;;;6.83;3.70;;;;;;;27.87;44.72;100632.83;1743477;81;21511;-68
2021/07/09 00:35:40;;;;;;;7.03;3.67;;;;;;;29.25;42.59;100619.61;1755545;80;21885;-64
2021/07/09 00:38:07;;;;;;;8.48;3.35;;;;;;;29.34;42.12;100622.06;1705026;82;21047;-65
2021/07/09 00:40:33;;;;;;;3.77;3.20;;;;;;;29.23;41.80;100617.70;1706212;82;23310;-65
2021/07/09 00:43:01;;;;;;;4.83;3.47;;;;;;;29.11;41.78;100616.52;1734077;82;20963;-64
2021/07/09 00:45:28;;;;;;;4.10;2.80;;;;;;;29.01;41.71;100618.69;1715157;82;21014;-64
2021/07/09 00:47:54;;;;;;;6.35;3.27;;;;;;;28.89;41.38;100610.73;1725496;82;21012;-65
2021/07/09 00:50:21;;;;;;;5.37;3.40;;;;;;;28.81;41.22;100614.00;1721460;82;21042;-66
2021/07/09 00:52:48;;;;;;;8.98;3.17;;;;;;;28.72;41.02;100616.41;1708693;82;21217;-64
2021/07/09 00:55:15;;;;;;;3.67;2.92;;;;;;;28.63;40.82;100613.94;1704852;82;20968;-65
2021/07/09 00:57:44;;;;;;;4.83;3.30;;;;;;;28.56;40.74;100616.09;1725929;82;21034;-63
2021/07/09 01:00:13;;;;;;;4.12;3.12;;;;;;;28.48;40.88;100615.20;1711875;82;21556;-65
2021/07/09 01:02:41;;;;;;;5.30;2.70;;;;;;;28.41;41.04;100621.74;1734436;82;21037;-66
2021/07/09 01:05:10;;;;;;;4.22;3.60;;;;;;;28.34;41.14;100612.95;1704767;82;22325;-66
2021/07/09 01:07:38;;;;;;;5.28;3.25;;;;;;;28.28;41.32;100621.38;1724026;82;21042;-65
2021/07/09 01:10:11;;;;;;;4.53;3.50;;;;;;;28.20;41.61;100617.23;1726531;82;21066;-66
2021/07/09 01:12:39;;;;;;;5.03;3.30;;;;;;;28.15;42.02;100613.13;1704910;82;21047;-65
2021/07/09 01:15:09;;;;;;;5.95;3.35;;;;;;;28.07;42.41;100618.54;1711479;82;21553;-65
2021/07/09 01:17:37;;;;;;;7.60;3.42;;;;;;;28.01;42.79;100613.58;1718033;82;21135;-66
2021/07/09 01:20:12;;;;;;;5.50;3.60;;;;;;;27.94;43.18;100611.62;1725413;82;21056;-65
2021/07/09 01:22:44;;;;;;;6.58;3.27;;;;;;;27.89;43.49;100612.12;1705104;82;21099;-65
2021/07/09 01:25:19;;;;;;;5.97;3.62;;;;;;;27.83;43.76;100613.95;1718990;82;21096;-65
2021/07/09 01:27:49;;;;;;;4.12;3.45;;;;;;;27.77;44.00;100615.83;1701806;83;21060;-65
2021/07/09 01:30:19;;;;;;;5.50;3.40;;;;;;;27.73;44.19;100617.98;1689308;83;21125;-65
2021/07/09 01:32:47;;;;;;;6.33;3.87;;;;;;;27.68;44.35;100617.41;1689444;83;21020;-65
2021/07/09 01:35:15;;;;;;;5.22;3.25;;;;;;;27.63;44.50;100614.08;1691145;83;21072;-65
2021/07/09 01:37:44;;;;;;;4.12;3.15;;;;;;;27.59;44.66;100611.59;1693998;83;21130;-64
2021/07/09 01:40:12;;;;;;;4.10;3.50;;;;;;;27.56;44.75;100612.11;1694041;83;21071;-64
2021/07/09 01:42:39;;;;;;;6.70;3.35;;;;;;;27.53;44.86;100614.01;1703735;83;21156;-65
2021/07/09 01:45:06;;;;;;;3.87;3.55;;;;;;;27.50;44.92;100610.42;1693385;83;21646;-65
2021/07/09 01:47:34;;;;;;;7.15;3.30;;;;;;;27.46;44.92;100609.30;1693686;83;21049;-64
2021/07/09 01:50:02;;;;;;;4.40;3.50;;;;;;;27.43;44.96;100608.47;1693306;83;21051;-65
2021/07/09 01:52:29;;;;;;;6.30;3.42;;;;;;;27.39;45.00;100606.80;1694021;83;21095;-65
2021/07/09 01:54:56;;;;;;;4.72;3.17;;;;;;;27.35;45.04;100602.95;1693527;83;21129;-65
2021/07/09 01:57:22;;;;;;;3.50;3.08;;;;;;;27.31;45.09;100603.16;1693563;83;21042;-64
2021/07/09 01:59:48;;;;;;;4.60;3.60;;;;;;;27.28;45.14;100603.69;1694214;83;21518;-65
2021/07/09 02:02:15;;;;;;;6.92;3.47;;;;;;;27.24;45.21;100604.74;1693951;83;21091;-65
2021/07/09 02:04:49;;;;;;;4.47;3.25;;;;;;;27.23;45.21;100609.87;1694162;83;21079;-65
2021/07/09 02:07:16;;;;;;;6.25;3.22;;;;;;;27.19;45.21;100607.92;1712627;83;21754;-65
2021/07/09 02:09:47;;;;;;;6.37;3.55;;;;;;;27.15;45.23;100606.80;1694941;83;21114;-65
2021/07/09 02:12:14;;;;;;;5.47;3.50;;;;;;;27.12;45.32;100609.51;1709867;83;21006;-66
2021/07/09 02:14:41;;;;;;;5.62;3.58;;;;;;;27.10;45.35;100608.10;1711585;83;21033;-65
2021/07/09 02:17:09;;;;;;;4.67;3.60;;;;;;;27.05;45.40;100606.97;1707583;83;21100;-65
2021/07/09 02:19:38;;;;;;;5.37;3.50;;;;;;;27.03;45.43;100612.41;1701894;82;21148;-65
2021/07/09 02:22:06;;;;;;;4.65;3.37;;;;;;;27.00;45.49;100613.72;1720377;81;21013;-65
2021/07/09 02:24:34;;;;;;;3.65;3.33;;;;;;;26.97;45.56;100613.44;1720604;83;21543;-65
2021/07/09 02:27:03;;;;;;;5.17;3.65;;;;;;;26.94;45.65;100617.48;1693519;83;21059;-65
2021/07/09 02:29:33;;;;;;;4.75;3.47;;;;;;;26.93;45.73;100621.30;1693905;83;21543;-66
2021/07/09 02:32:04;;;;;;;6.70;3.95;;;;;;;26.91;45.88;100622.61;1711749;83;21058;-65
2021/07/09 02:34:30;;;;;;;4.40;3.72;;;;;;;26.87;45.99;100623.14;1696422;83;21043;-64
2021/07/09 02:36:57;;;;;;;5.87;3.50;;;;;;;26.84;46.06;100620.91;1716289;83;21555;-65
2021/07/09 02:39:25;;;;;;;7.22;3.55;;;;;;;26.82;46.23;100620.34;1723101;83;21046;-66
2021/07/09 02:41:53;;;;;;;5.85;3.45;;;;;;;26.82;46.37;100621.71;1702981;83;21530;-65
2021/07/09 02:44:21;;;;;;;6.80;3.50;;;;;;;26.80;46.45;100618.97;1704358;83;21186;-65
2021/07/09 02:46:50;;;;;;;8.35;3.80;;;;;;;26.78;46.56;100616.48;1693873;83;21039;-66
2021/07/09 02:49:17;;;;;;;3.98;3.58;;;;;;;26.76;46.68;100614.55;1693893;83;21549;-65
2021/07/09 02:51:43;;;;;;;7.03;3.30;;;;;;;26.75;46.76;100612.89;1710059;83;21567;-65
2021/07/09 02:54:09;;;;;;;6.40;3.60;;;;;;;26.73;46.84;100610.15;1698249;83;21085;-65
2021/07/09 02:56:37;;;;;;;5.85;4.35;;;;;;;26.72;46.92;100620.78;1693997;83;21193;-66
2021/07/09 02:59:03;;;;;;;6.40;4.22;;;;;;;26.71;47.01;100617.21;1693858;83;21064;-65
2021/07/09 03:01:31;;;;;;;3.72;3.42;;;;;;;26.69;47.10;100618.01;1704883;83;21045;-66
2021/07/09 03:03:58;;;;;;;6.97;3.62;;;;;;;26.68;47.24;100616.37;1701867;83;21037;-66
2021/07/09 03:06:24;;;;;;;5.87;3.40;;;;;;;26.65;47.33;100609.51;1702455;83;20987;-66
2021/07/09 03:08:52;;;;;;;6.20;3.95;;;;;;;26.65;47.45;100612.78;1705309;83;21157;-65
2021/07/09 03:11:20;;;;;;;6.33;3.75;;;;;;;26.65;47.58;100618.23;1700616;83;21049;-65
2021/07/09 03:13:46;;;;;;;5.28;3.70;;;;;;;26.63;47.69;100610.85;1723000;83;21191;-66
2021/07/09 03:16:13;;;;;;;7.60;4.47;;;;;;;26.63;47.84;100604.04;1702459;83;21070;-66
2021/07/09 03:18:39;;;;;;;6.95;4.50;;;;;;;26.62;48.00;100610.03;1710495;83;21052;-66
2021/07/09 03:21:05;;;;;;;7.10;4.53;;;;;;;26.62;48.19;100606.50;1694123;83;21794;-65
2021/07/09 03:23:32;;;;;;;9.40;5.12;;;;;;;26.60;48.32;100599.93;1693869;83;21054;-65
2021/07/09 03:26:00;;;;;;;7.95;4.58;;;;;;;26.60;48.41;100610.02;1693969;83;21051;-66
2021/07/09 03:28:27;;;;;;;10.23;4.67;;;;;;;26.61;48.51;100608.92;1694043;83;21578;-66
2021/07/09 03:30:54;;;;;;;7.42;4.60;;;;;;;26.60;48.62;100612.74;1710692;83;21028;-65
2021/07/09 03:33:21;;;;;;;6.85;4.28;;;;;;;26.61;48.86;100613.01;1717789;83;21540;-65
2021/07/09 03:35:47;;;;;;;7.30;4.65;;;;;;;26.61;49.07;100615.73;1693750;83;21111;-66
2021/07/09 03:38:14;;;;;;;7.95;5.08;;;;;;;26.61;49.28;100608.92;1694106;83;21090;-65
2021/07/09 03:40:40;;;;;;;7.05;4.45;;;;;;;26.60;49.49;100612.19;1694123;83;21562;-65
2021/07/09 03:43:08;;;;;;;7.67;5.25;;;;;;;26.62;49.71;100611.95;1693902;83;21127;-66
2021/07/09 03:45:35;;;;;;;15.98;5.70;;;;;;;26.60;49.97;100612.19;1693936;83;21143;-66
2021/07/09 03:48:05;;;;;;;10.75;5.30;;;;;;;26.60;50.27;100610.83;1693774;83;21070;-66
2021/07/09 03:50:32;;;;;;;12.65;5.45;;;;;;;26.60;50.48;100611.38;1693864;83;21044;-66
2021/07/09 03:52:59;;;;;;;11.60;5.03;;;;;;;26.61;50.71;100621.19;1694095;83;21106;-65
2021/07/09 03:55:25;;;;;;;8.85;5.40;;;;;;;26.60;50.84;100619.55;1713512;83;20998;-66
2021/07/09 03:57:53;;;;;;;10.70;6.03;;;;;;;26.61;51.01;100623.91;1714581;83;21060;-65
2021/07/09 04:00:20;;;;;;;13.25;6.25;;;;;;;26.62;51.29;100625.02;1693781;83;21762;-65
2021/07/09 04:02:47;;;;;;;13.78;6.62;;;;;;;26.62;51.51;100622.84;1694406;83;21079;-65
2021/07/09 04:05:13;;;;;;;11.25;5.85;;;;;;;26.64;51.60;100626.14;1693957;83;21071;-65
2021/07/09 04:07:40;;;;;;;11.85;6.35;;;;;;;26.64;51.61;100626.95;1694040;83;21501;-66
2021/07/09 04:10:08;;;;;;;15.08;7.15;;;;;;;26.67;51.75;100623.70;1705982;83;21100;-66
2021/07/09 04:12:36;;;;;;;19.17;7.45;;;;;;;26.70;52.07;100628.39;1700431;83;21053;-65
2021/07/09 04:15:06;;;;;;;11.43;6.30;;;;;;;26.72;52.32;100633.86;1693903;83;21146;-65
2021/07/09 04:17:34;;;;;;;18.85;6.78;;;;;;;26.73;52.55;100627.86;1694139;83;21059;-65
2021/07/09 04:20:01;;;;;;;14.23;7.65;;;;;;;26.75;52.60;100627.07;1702460;83;21024;-65
2021/07/09 04:22:28;;;;;;;18.92;7.75;;;;;;;26.76;52.76;100629.55;1705552;83;21918;-65
2021/07/09 04:24:54;;;;;;;11.73;7.28;;;;;;;26.79;52.94;100627.69;1693781;83;21046;-65
2021/07/09 04:27:21;;;;;;;16.70;8.03;;;;;;;26.83;53.02;100626.61;1693958;83;21063;-65
2021/07/09 04:29:48;;;;;;;16.15;7.50;;;;;;;26.86;53.07;100626.94;1693757;83;21985;-66
2021/07/09 04:32:15;;;;;;;15.45;7.50;;;;;;;26.88;53.27;100627.50;1693123;83;21052;-67
2021/07/09 04:34:41;;;;;;;15.25;8.03;;;;;;;26.93;53.47;100630.03;1693803;83;21147;-65
2021/07/09 04:37:11;;;;;;;23.40;7.50;;;;;;;26.97;53.59;100628.44;1693846;83;21095;-65
2021/07/09 04:39:38;;;;;;;16.10;8.53;;;;;;;27.01;53.72;100623.56;1707622;83;21069;-66
2021/07/09 04:42:05;;;;;;;13.48;6.75;;;;;;;27.05;53.82;100626.06;1700246;83;21051;-65
2021/07/09 04:44:33;;;;;;;16.37;7.72;;;;;;;27.10;53.90;100629.40;1693847;83;21054;-64
2021/07/09 04:46:59;;;;;;;15.25;7.30;;;;;;;27.16;53.90;100633.82;1693839;83;21161;-65
2021/07/09 04:49:26;;;;;;;11.55;6.45;;;;;;;27.21;53.80;100631.13;1704104;83;21012;-66
2021/07/09 04:51:53;;;;;;;12.90;6.50;;;;;;;27.25;53.63;100635.05;1694020;83;21569;-66
2021/07/09 04:54:20;;;;;;;13.68;6.22;;;;;;;27.29;53.28;100631.78;1693809;83;21048;-65
2021/07/09 04:56:47;;;;;;;12.35;6.08;;;;;;;27.31;52.61;100630.98;1709361;83;21034;-66
2021/07/09 04:59:13;;;;;;;9.88;5.22;;;;;;;27.34;51.66;100634.57;1698388;83;21099;-65
2021/07/09 05:01:40;;;;;;;11.28;4.85;;;;;;;27.35;50.46;100624.77;1705777;83;21647;-65
2021/07/09 05:04:07;;;;;;;11.12;5.10;;;;;;;27.38;49.28;100626.97;1701051;83;21032;-65
2021/07/09 05:06:35;;;;;;;9.35;4.78;;;;;;;27.40;49.13;100628.08;1693930;83;21239;-65
2021/07/09 05:09:04;;;;;;;10.93;4.72;;;;;;;27.43;48.96;100634.39;1694040;83;21028;-65
2021/07/09 05:11:34;;;;;;;9.55;5.17;;;;;;;27.45;48.81;100634.95;1704282;83;21039;-65
2021/07/09 05:14:02;;;;;;;7.33;5.00;;;;;;;27.46;48.47;100636.03;1694246;83;21084;-66
2021/07/09 05:16:28;;;;;;;13.35;5.03;;;;;;;27.49;48.27;100630.63;1694086;83;21126;-66
2021/07/09 05:18:56;;;;;;;6.72;4.28;;;;;;;27.51;47.97;100632.55;1694029;83;21071;-68
2021/07/09 05:21:25;;;;;;;10.18;4.37;;;;;;;27.53;47.39;100627.66;1694357;83;21055;-66
2021/07/09 05:23:52;;;;;;;11.00;4.95;;;;;;;27.55;46.72;100632.30;1694320;83;21930;-67
2021/07/09 05:26:18;;;;;;;11.57;4.92;;;;;;;27.57;46.20;100630.14;1714368;83;21049;-67
2021/07/09 05:28:45;;;;;;;8.18;4.30;;;;;;;27.60;45.92;100632.88;1694136;83;21051;-66
2021/07/09 05:31:11;;;;;;;13.53;4.28;;;;;;;27.62;45.77;100633.44;1714189;83;21009;-66
2021/07/09 05:33:38;;;;;;;9.05;4.90;;;;;;;27.63;45.78;100633.19;1694167;83;21622;-65
2021/07/09 05:36:04;;;;;;;11.57;3.98;;;;;;;27.65;45.75;100626.92;1689969;83;21148;-65
2021/07/09 05:38:31;;;;;;;10.13;4.35;;;;;;;27.69;45.59;100627.78;1688850;83;21503;-64
2021/07/09 05:40:57;;;;;;;8.33;4.58;;;;;;;27.71;45.46;100625.61;1688962;83;21079;-66
2021/07/09 05:43:24;;;;;;;8.03;4.08;;;;;;;27.74;45.19;100620.98;1688906;83;21012;-66
2021/07/09 05:45:50;;;;;;;9.28;4.42;;;;;;;27.77;45.06;100624.02;1683971;83;21115;-65
2021/07/09 05:48:17;;;;;;;10.58;4.60;;;;;;;27.80;44.87;100622.69;1678752;83;21075;-65
2021/07/09 05:50:45;;;;;;;7.58;4.45;;;;;;;27.83;44.74;100618.90;1676999;83;21072;-66
2021/07/09 05:53:11;;;;;;;7.65;4.30;;;;;;;27.87;44.61;100626.00;1702209;83;21008;-65
2021/07/09 05:55:38;;;;;;;10.15;4.55;;;;;;;27.90;44.49;100619.23;1687598;83;21177;-66
2021/07/09 05:58:04;;;;;;;5.08;4.05;;;;;;;27.92;44.43;100612.42;1667300;83;21072;-65
2021/07/09 06:00:31;;;;;;;12.07;4.35;;;;;;;27.96;44.34;100615.45;1681866;83;21515;-66
2021/07/09 06:02:57;;;;;;;9.23;4.83;;;;;;;27.99;44.23;100617.13;1673439;83;21063;-66
2021/07/09 06:05:23;;;;;;;10.10;3.80;;;;;;;28.02;43.96;100615.21;1689035;83;21032;-65
2021/07/09 06:07:51;;;;;;;10.05;4.15;;;;;;;28.07;43.77;100619.06;1688750;83;21106;-68
2021/07/09 06:10:17;;;;;;;6.45;4.05;;;;;;;28.09;43.64;100619.65;1678359;83;21051;-65
2021/07/09 06:12:45;;;;;;;7.90;4.35;;;;;;;28.13;43.56;100624.86;1682469;83;21536;-66
2021/07/09 06:15:12;;;;;;;8.88;4.50;;;;;;;28.16;43.67;100620.22;1667607;83;21043;-65
2021/07/09 06:17:39;;;;;;;9.70;4.87;;;;;;;28.19;43.63;100621.06;1667200;83;21056;-65
2021/07/09 06:20:07;;;;;;;11.30;3.77;;;;;;;28.22;43.28;100613.17;1667110;83;21756;-66
2021/07/09 06:22:33;;;;;;;9.83;4.00;;;;;;;28.27;42.90;100617.02;1681203;83;21091;-67
2021/07/09 06:25:00;;;;;;;7.67;3.70;;;;;;;28.29;42.66;100607.45;1688628;83;21218;-65
2021/07/09 06:27:26;;;;;;;8.45;3.90;;;;;;;28.34;42.57;100610.77;1688746;83;21036;-66
2021/07/09 06:29:53;;;;;;;11.45;4.60;;;;;;;28.37;42.22;100613.77;1685719;83;21558;-65
2021/07/09 06:32:19;;;;;;;8.80;3.30;;;;;;;28.40;42.08;100609.16;1667397;83;21547;-66
2021/07/09 06:34:45;;;;;;;5.40;3.72;;;;;;;28.43;41.91;100611.37;1671526;83;21055;-65
2021/07/09 06:37:12;;;;;;;6.70;3.80;;;;;;;28.47;41.52;100614.91;1667082;83;21088;-65
2021/07/09 06:39:38;;;;;;;11.00;3.65;;;;;;;28.49;41.17;100610.85;1690155;83;21496;-65
2021/07/09 06:42:05;;;;;;;7.20;3.50;;;;;;;28.53;40.57;100615.24;1694245;83;21150;-66
2021/07/09 06:44:32;;;;;;;5.30;3.37;;;;;;;28.56;40.04;100616.09;1686573;83;21508;-66
2021/07/09 06:47:00;;;;;;;7.00;3.02;;;;;;;28.58;39.70;100611.17;1707682;83;21054;-66
2021/07/09 06:49:26;;;;;;;4.15;2.65;;;;;;;28.60;39.54;100604.34;1672682;83;21201;-65
2021/07/09 06:51:53;;;;;;;5.40;2.77;;;;;;;28.64;39.12;100611.47;1687215;83;21040;-66
2021/07/09 06:54:19;;;;;;;4.05;3.20;;;;;;;28.66;38.91;100601.09;1688660;83;21566;-66
2021/07/09 06:56:46;;;;;;;3.72;3.22;;;;;;;28.68;38.86;100597.54;1677774;83;21117;-66
2021/07/09 06:59:12;;;;;;;7.10;3.30;;;;;;;28.71;38.51;100606.58;1669991;83;21036;-66
2021/07/09 07:01:39;;;;;;;10.08;3.37;;;;;;;28.74;38.55;100603.84;1679827;83;21094;-67
2021/07/09 07:04:07;;;;;;;5.78;3.33;;;;;;;28.76;38.53;100609.34;1667875;83;21055;-67
2021/07/09 07:06:33;;;;;;;3.50;3.15;;;;;;;28.78;38.57;100609.89;1698173;83;21088;-65
2021/07/09 07:09:00;;;;;;;4.00;2.70;;;;;;;28.81;38.62;100601.69;1715286;83;21028;-66
2021/07/09 07:11:26;;;;;;;4.70;2.65;;;;;;;28.84;38.08;100599.80;1708482;83;21582;-66
2021/07/09 07:13:53;;;;;;;4.85;2.67;;;;;;;28.86;37.81;100600.88;1703937;83;21201;-66
2021/07/09 07:16:20;;;;;;;2.95;2.70;;;;;;;28.88;37.62;100594.59;1673023;83;21587;-66
2021/07/09 07:18:46;;;;;;;3.20;2.87;;;;;;;28.90;37.66;100607.47;1677636;83;21064;-64
2021/07/09 07:21:14;;;;;;;3.37;2.95;;;;;;;28.92;37.48;100602.55;1686722;83;21584;-66
2021/07/09 07:23:41;;;;;;;2.60;2.40;;;;;;;28.94;37.22;100603.11;1675730;83;21099;-66
2021/07/09 07:26:07;;;;;;;5.03;2.50;;;;;;;28.97;36.78;100601.18;1673383;83;21084;-65
2021/07/09 07:28:33;;;;;;;3.45;2.50;;;;;;;28.99;36.16;100596.26;1667186;83;21522;-65
2021/07/09 07:31:00;;;;;;;3.70;2.45;;;;;;;29.00;36.20;100595.18;1667090;83;21013;-67
2021/07/09 07:33:27;;;;;;;3.42;2.52;;;;;;;29.03;35.87;100591.89;1671368;83;21068;-64
2021/07/09 07:35:54;;;;;;;5.22;2.70;;;;;;;29.04;35.51;100590.81;1684151;83;21543;-66
2021/07/09 07:38:20;;;;;;;4.58;2.62;;;;;;;29.06;34.95;100574.13;1722930;83;21055;-66
2021/07/09 07:40:46;;;;;;;3.00;2.47;;;;;;;29.08;34.88;100592.46;1716152;83;21028;-65
2021/07/09 07:43:12;;;;;;;3.42;2.67;;;;;;;29.08;34.89;100580.97;1693896;83;21086;-64
2021/07/09 07:45:39;;;;;;;4.42;2.87;;;;;;;29.11;34.57;100572.23;1694068;83;21031;-65
2021/07/09 07:48:06;;;;;;;7.08;2.65;;;;;;;29.12;34.56;100571.16;1707163;83;21061;-66
2021/07/09 07:50:33;;;;;;;4.28;2.45;;;;;;;29.14;34.90;100570.33;1700670;83;21149;-67
2021/07/09 07:52:59;;;;;;;4.67;3.33;;;;;;;29.15;35.04;100570.62;1694226;83;21063;-66
2021/07/09 07:55:26;;;;;;;2.70;2.35;;;;;;;29.18;35.36;100570.61;1713550;83;21596;-65
2021/07/09 07:57:52;;;;;;;4.92;2.90;;;;;;;29.19;35.36;100580.48;1693815;83;21027;-65
2021/07/09 08:00:19;;;;;;;4.17;2.62;;;;;;;29.21;35.56;100570.89;1693931;83;21106;-65
2021/07/09 08:02:45;;;;;;;4.25;2.90;;;;;;;29.24;35.44;100573.63;1693929;83;21051;-66
2021/07/09 08:05:12;;;;;;;5.28;2.98;;;;;;;29.26;35.51;100571.43;1708279;83;21002;-65
2021/07/09 08:07:42;;;;;;;4.70;2.95;;;;;;;29.28;35.43;100566.50;1699578;83;21044;-66
2021/07/09 08:10:10;;;;;;;4.10;2.98;;;;;;;29.31;35.49;100572.00;1693231;83;21051;-66
2021/07/09 08:12:37;;;;;;;2.62;2.40;;;;;;;29.33;35.28;100567.07;1694268;83;21094;-66
2021/07/09 08:15:06;;;;;;;5.08;2.92;;;;;;;29.34;35.68;100559.97;1693879;83;21031;-66
2021/07/09 08:17:35;;;;;;;6.67;2.90;;;;;;;29.37;35.95;100555.30;1693844;83;21059;-65
2021/07/09 08:20:01;;;;;;;3.80;2.77;;;;;;;29.39;35.95;100562.69;1693976;83;21103;-65
2021/07/09 08:22:27;;;;;;;3.02;2.22;;;;;;;29.40;36.01;100547.92;1694193;83;21047;-66
2021/07/09 08:24:53;;;;;;;6.12;2.70;;;;;;;29.43;35.90;100549.27;1693947;83;21538;-65
2021/07/09 08:27:20;;;;;;;3.52;2.65;;;;;;;29.45;36.11;100547.08;1693873;83;21238;-65
2021/07/09 08:29:46;;;;;;;2.75;2.55;;;;;;;29.49;36.22;100545.99;1693838;83;21000;-68
2021/07/09 08:32:13;;;;;;;3.87;2.80;;;;;;;29.51;36.38;100541.87;1693877;83;21071;-65
2021/07/09 08:34:39;;;;;;;4.42;2.98;;;;;;;29.53;36.57;100538.87;1693932;83;21066;-66
2021/07/09 08:37:06;;;;;;;2.90;2.67;;;;;;;29.55;36.99;100536.67;1693909;83;21519;-66
2021/07/09 08:39:33;;;;;;;3.20;2.90;;;;;;;29.57;36.72;100538.58;1693926;83;21111;-65
2021/07/09 08:41:59;;;;;;;3.47;2.70;;;;;;;29.59;36.16;100529.55;1693810;83;21032;-66
2021/07/09 08:44:26;;;;;;;4.53;2.98;;;;;;;29.60;36.28;100530.64;1694003;83;21511;-66
2021/07/09 08:46:55;;;;;;;3.27;2.92;;;;;;;29.65;36.46;100521.63;1694046;83;21035;-66
2021/07/09 08:49:22;;;;;;;3.55;3.00;;;;;;;29.67;36.69;100526.80;1702199;83;21053;-65
2021/07/09 08:51:49;;;;;;;3.65;2.47;;;;;;;29.68;37.02;100529.27;1706116;83;21202;-65
2021/07/09 08:54:18;;;;;;;3.08;2.75;;;;;;;29.71;37.33;100532.83;1714821;83;21091;-65
2021/07/09 08:56:45;;;;;;;3.15;2.70;;;;;;;29.72;37.48;100516.69;1693827;83;21015;-67
2021/07/09 08:59:11;;;;;;;4.60;3.70;;;;;;;29.74;37.63;100515.86;1694071;83;21549;-65
2021/07/09 09:01:52;;;;;;;6.72;3.22;;;;;;;29.77;37.56;100513.14;1706734;83;21024;-66
2021/07/09 09:04:30;;;;;;;3.45;3.08;;;;;;;29.78;37.78;100510.09;1699277;83;21147;-66
2021/07/09 09:07:05;;;;;;;4.20;2.98;;;;;;;29.81;37.89;100512.84;1694018;83;21076;-65
2021/07/09 09:09:38;;;;;;;4.53;3.00;;;;;;;29.83;38.30;100511.20;1694205;83;21531;-66
2021/07/09 09:12:16;;;;;;;3.60;3.15;;;;;;;29.84;38.43;100502.69;1694080;83;21069;-65
2021/07/09 09:14:48;;;;;;;3.52;2.85;;;;;;;29.87;38.48;100504.07;1693561;83;21041;-65
2021/07/09 09:17:33;;;;;;;3.00;2.75;;;;;;;29.88;38.33;100492.84;1691951;83;21084;-67
2021/07/09 09:20:14;;;;;;;3.92;3.27;;;;;;;29.89;38.52;100494.47;1692941;83;20984;-65
2021/07/09 09:22:55;;;;;;;4.65;3.27;;;;;;;29.92;38.40;100491.71;1693212;83;21029;-65
2021/07/09 09:25:26;;;;;;;3.27;2.75;;;;;;;29.93;38.63;100506.50;1713600;83;21043;-65
2021/07/09 09:28:06;;;;;;;5.37;2.98;;;;;;;29.96;38.96;100499.64;1694317;83;21028;-65
2021/07/09 09:30:34;;;;;;;4.17;2.92;;;;;;;29.99;39.13;100514.97;1694420;83;21084;-65
2021/07/09 09:33:04;;;;;;;4.60;2.77;;;;;;;30.02;39.47;100505.92;1694184;83;21531;-65
2021/07/09 09:35:37;;;;;;;5.03;2.80;;;;;;;30.05;39.63;100499.34;1694403;83;21533;-66
2021/07/09 09:38:03;;;;;;;4.55;2.87;;;;;;;30.08;39.54;100496.61;1693834;83;21056;-67
2021/07/09 09:40:30;;;;;;;4.45;2.90;;;;;;;30.11;39.55;100483.70;1714458;83;21064;-66
2021/07/09 09:42:56;;;;;;;2.83;2.62;;;;;;;30.14;39.47;100484.52;1687125;83;21220;-67
2021/07/09 09:45:25;;;;;;;3.12;2.83;;;;;;;30.18;39.69;100492.45;1702566;83;21652;-65
2021/07/09 09:47:52;;;;;;;3.35;3.05;;;;;;;30.21;40.01;100486.41;1694109;83;21066;-64
2021/07/09 09:50:20;;;;;;;3.02;2.72;;;;;;;30.25;40.02;100484.75;1694042;83;21691;-65
2021/07/09 09:52:51;;;;;;;6.05;3.35;;;;;;;30.29;40.12;100479.50;1694033;83;21070;-66
2021/07/09 09:55:32;;;;;;;3.55;2.80;;;;;;;30.32;40.12;100477.05;1711139;83;21987;-66
2021/07/09 09:58:14;;;;;;;3.08;2.80;;;;;;;30.37;40.17;100483.88;1713757;83;21087;-67
2021/07/09 10:00:44;;;;;;;4.10;2.77;;;;;;;30.41;40.30;100471.00;1694305;83;21046;-64
2021/07/09 10:03:11;;;;;;;2.92;2.65;;;;;;;30.43;40.19;100472.34;1694054;83;21106;-66
2021/07/09 10:05:43;;;;;;;3.40;2.80;;;;;;;30.48;40.29;100479.17;1694117;83;21020;-65
2021/07/09 10:08:13;;;;;;;3.62;2.95;;;;;;;30.52;40.32;100472.55;1703981;83;21055;-65
2021/07/09 10:10:40;;;;;;;3.10;2.80;;;;;;;30.56;40.18;100465.42;1693925;83;21535;-65
2021/07/09 10:13:13;;;;;;;3.20;2.90;;;;;;;30.61;40.19;100465.92;1693965;83;21051;-65
2021/07/09 10:15:41;;;;;;;3.42;3.10;;;;;;;30.65;40.38;100470.55;1693355;83;21014;-65
2021/07/09 10:18:11;;;;;;;3.10;2.80;;;;;;;30.70;40.44;100471.08;1693848;83;21019;-66
2021/07/09 10:20:39;;;;;;;3.37;2.65;;;;;;;30.74;40.51;100469.40;1694266;83;21198;-66
2021/07/09 10:23:05;;;;;;;3.77;3.25;;;;;;;30.79;40.62;100466.63;1693968;83;21039;-68
2021/07/09 10:25:32;;;;;;;3.00;2.80;;;;;;;30.84;40.50;100471.25;1694000;83;21031;-65
2021/07/09 10:27:58;;;;;;;3.50;2.72;;;;;;;30.88;40.56;100467.63;1694030;83;21004;-66
2021/07/09 10:30:40;;;;;;;3.10;2.80;;;;;;;30.94;40.55;100469.26;1694361;83;21099;-66
2021/07/09 10:33:33;;;;;;;3.58;3.27;;;;;;;30.99;40.57;100461.56;1694088;83;22892;-65
2021/07/09 10:36:07;;;;;;;3.27;2.92;;;;;;;31.05;40.48;100467.82;1712711;83;21562;-65
2021/07/09 10:38:41;;;;;;;3.40;3.10;;;;;;;31.08;39.66;100448.86;1694079;83;21048;-65
2021/07/09 10:41:18;;;;;;;3.30;2.90;;;;;;;31.13;39.63;100457.59;1693999;83;21071;-65
2021/07/09 10:44:13;;;;;;;3.62;3.30;;;;;;;31.19;39.61;100452.88;1693028;83;21112;-65
2021/07/09 10:46:39;;;;;;;3.50;3.20;;;;;;;31.25;39.29;100447.59;1693961;83;21128;-66
2021/07/09 10:49:06;;;;;;;3.60;3.20;;;;;;;31.29;38.87;100437.67;1714444;83;21060;-66
2021/07/09 10:51:51;;;;;;;3.70;2.92;;;;;;;31.34;38.49;100435.70;1707649;83;21057;-65
2021/07/09 10:54:29;;;;;;;3.52;3.22;;;;;;;31.40;38.64;100430.16;1696362;83;21606;-66
2021/07/09 10:57:21;;;;;;;4.55;3.02;;;;;;;31.46;39.09;100429.02;1693460;83;21059;-65
2021/07/09 11:00:23;;;;;;;3.87;2.87;;;;;;;31.50;39.16;100420.47;1714032;83;22230;-66
2021/07/09 11:03:06;;;;;;;3.20;3.00;;;;;;;31.55;39.33;100417.11;1694263;83;21112;-65
2021/07/09 11:05:55;;;;;;;3.42;2.80;;;;;;;31.59;39.62;100423.41;1694190;83;21048;-65
2021/07/09 11:08:41;;;;;;;3.20;2.90;;;;;;;31.63;39.82;100422.52;1705869;83;21069;-64
2021/07/09 11:11:16;;;;;;;3.50;3.17;;;;;;;31.67;39.86;100427.68;1722885;83;21077;-66
2021/07/09 11:13:46;;;;;;;4.72;2.90;;;;;;;31.71;39.94;100422.42;1708831;83;21099;-66
2021/07/09 11:16:38;;;;;;;5.22;3.02;;;;;;;31.75;39.96;100417.97;1697585;83;21031;-64
2021/07/09 11:19:11;;;;;;;3.83;3.20;;;;;;;31.81;39.97;100414.05;1705385;83;21025;-66
2021/07/09 11:21:43;;;;;;;3.30;3.00;;;;;;;31.87;40.08;100416.17;1693913;83;21052;-66
2021/07/09 11:24:13;;;;;;;3.12;2.83;;;;;;;31.91;40.15;100398.83;1694156;83;21044;-65
2021/07/09 11:26:59;;;;;;;3.15;2.85;;;;;;;31.98;40.14;100401.20;1700616;83;21831;-65
2021/07/09 11:29:46;;;;;;;2.90;2.70;;;;;;;32.04;40.20;100404.16;1723022;83;21017;-66
2021/07/09 11:32:19;;;;;;;2.90;2.70;;;;;;;32.10;40.26;100404.38;1711147;83;21641;-69
2021/07/09 11:34:56;;;;;;;2.90;2.70;;;;;;;32.17;40.31;100399.06;1693877;83;21035;-65
2021/07/09 11:37:27;;;;;;;2.98;2.70;;;;;;;32.23;40.30;100386.88;1692869;83;21687;-65
2021/07/09 11:40:07;;;;;;;3.40;3.10;;;;;;;32.29;40.32;100385.11;1694208;83;21146;-66
2021/07/09 11:42:35;;;;;;;3.05;2.75;;;;;;;32.36;40.31;100386.13;1694197;83;21063;-66
2021/07/09 11:45:08;;;;;;;3.58;3.25;;;;;;;32.41;40.28;100379.16;1693919;83;21051;-66